Time;durP1;ratioP1;P1;durP2;ratioP2;P2;SDS_P1;SDS_P2;PMS_P1;PMS_P2;Temp;Humidity;BMP_temperature;BMP_pressure;BME280_temperature;BME280_humidity;BME280_pressure;Samples;Min_cycle;Max_cycle;Signal;HPM_P1;HPM_P2
2023/11/09 00:02:12;;;;;;;1.30;0.90;;;;;;;;;;5049861;28;20120;-73
2023/11/09 00:04:38;;;;;;;1.67;0.93;;;;;;;;;;5059652;28;20805;-73
2023/11/09 00:07:03;;;;;;;1.50;1.00;;;;;;;;;;5054198;28;20061;-71
2023/11/09 00:09:28;;;;;;;1.50;1.00;;;;;;;;;;5059657;28;20805;-71
2023/11/09 00:11:56;;;;;;;1.63;0.98;;;;;;;;;;5065265;28;20061;-71
2023/11/09 00:14:21;;;;;;;1.30;0.88;;;;;;;;;;5058889;28;20032;-72
2023/11/09 00:16:46;;;;;;;1.50;0.80;;;;;;;;;;5060581;28;20052;-71
2023/11/09 00:19:13;;;;;;;1.52;1.00;;;;;;;;;;5053739;28;20029;-73
2023/11/09 00:21:38;;;;;;;1.38;1.05;;;;;;;;;;5063604;28;20131;-73
2023/11/09 00:24:04;;;;;;;1.30;0.85;;;;;;;;;;5054058;28;20143;-73
2023/11/09 00:26:30;;;;;;;1.77;1.23;;;;;;;;;;5066398;28;20522;-72
2023/11/09 00:28:56;;;;;;;1.70;0.80;;;;;;;;;;5054456;28;20128;-71
2023/11/09 00:31:22;;;;;;;1.45;0.90;;;;;;;;;;5063349;28;20132;-73
2023/11/09 00:33:47;;;;;;;1.80;0.90;;;;;;;;;;5061321;28;20029;-73
2023/11/09 00:36:12;;;;;;;1.38;1.00;;;;;;;;;;5065621;28;20037;-73
2023/11/09 00:38:38;;;;;;;1.63;0.70;;;;;;;;;;5054406;28;20033;-73
2023/11/09 00:41:03;;;;;;;1.30;0.90;;;;;;;;;;5061033;28;20036;-73
2023/11/09 00:43:29;;;;;;;1.55;0.93;;;;;;;;;;5050115;28;20075;-73
2023/11/09 00:45:54;;;;;;;1.27;0.85;;;;;;;;;;5051246;28;20523;-73
2023/11/09 00:48:20;;;;;;;1.45;0.80;;;;;;;;;;5053660;28;20056;-73
2023/11/09 00:50:45;;;;;;;0.97;0.63;;;;;;;;;;5057972;28;20036;-73
2023/11/09 00:53:10;;;;;;;1.50;0.93;;;;;;;;;;5064631;28;20675;-73
2023/11/09 00:55:36;;;;;;;1.33;0.80;;;;;;;;;;5061250;28;20028;-73
2023/11/09 00:58:01;;;;;;;1.35;0.90;;;;;;;;;;5048588;28;20037;-74
2023/11/09 01:00:27;;;;;;;1.80;0.90;;;;;;;;;;5055781;28;20506;-73
2023/11/09 01:02:54;;;;;;;1.27;0.80;;;;;;;;;;5053692;28;20452;-73
2023/11/09 01:05:19;;;;;;;1.20;0.80;;;;;;;;;;5063169;28;20432;-74
2023/11/09 01:07:44;;;;;;;1.40;0.93;;;;;;;;;;5047982;28;20052;-74
2023/11/09 01:10:10;;;;;;;1.45;0.85;;;;;;;;;;5059040;28;20085;-74
2023/11/09 01:12:35;;;;;;;1.58;0.80;;;;;;;;;;5061070;28;20051;-74
2023/11/09 01:15:04;;;;;;;1.00;0.75;;;;;;;;;;5059824;28;20032;-74
2023/11/09 01:17:29;;;;;;;1.67;0.82;;;;;;;;;;5065012;28;20035;-74
2023/11/09 01:19:54;;;;;;;1.10;0.80;;;;;;;;;;5058707;28;20037;-71
2023/11/09 01:22:20;;;;;;;1.15;0.80;;;;;;;;;;5053246;28;20029;-73
2023/11/09 01:24:45;;;;;;;1.60;0.93;;;;;;;;;;5054260;28;20041;-74
2023/11/09 01:27:10;;;;;;;1.25;0.80;;;;;;;;;;5060655;28;20361;-75
2023/11/09 01:29:36;;;;;;;1.23;0.70;;;;;;;;;;5056180;28;20047;-75
2023/11/09 01:32:01;;;;;;;1.63;0.75;;;;;;;;;;5063786;28;20054;-74
2023/11/09 01:34:27;;;;;;;1.15;0.77;;;;;;;;;;5064434;28;20463;-74
2023/11/09 01:36:55;;;;;;;1.20;0.80;;;;;;;;;;5056808;28;20036;-74
2023/11/09 01:39:23;;;;;;;1.52;0.60;;;;;;;;;;5049742;28;20731;-72
2023/11/09 01:41:48;;;;;;;1.33;0.80;;;;;;;;;;5046742;28;20043;-73
2023/11/09 01:44:14;;;;;;;1.40;0.95;;;;;;;;;;5044368;28;20120;-72
2023/11/09 01:46:40;;;;;;;1.10;0.65;;;;;;;;;;5054255;28;20040;-73
2023/11/09 01:49:05;;;;;;;1.40;0.88;;;;;;;;;;5051384;28;20115;-74
2023/11/09 01:51:31;;;;;;;1.60;0.82;;;;;;;;;;5048364;28;20042;-74
2023/11/09 01:53:56;;;;;;;1.52;0.80;;;;;;;;;;5060964;28;20045;-73
2023/11/09 01:56:22;;;;;;;1.30;0.80;;;;;;;;;;5053147;28;20551;-73
2023/11/09 01:58:48;;;;;;;0.95;0.70;;;;;;;;;;5053400;28;20537;-73
2023/11/09 02:01:14;;;;;;;0.90;0.70;;;;;;;;;;5045345;28;20040;-74
2023/11/09 02:03:42;;;;;;;1.02;0.55;;;;;;;;;;5060844;28;20041;-74
2023/11/09 02:06:12;;;;;;;1.10;0.60;;;;;;;;;;5047408;28;20036;-73
2023/11/09 02:08:37;;;;;;;1.25;0.80;;;;;;;;;;5055394;28;20048;-73
2023/11/09 02:11:03;;;;;;;1.13;0.60;;;;;;;;;;5063709;28;20082;-74
2023/11/09 02:13:28;;;;;;;1.42;0.80;;;;;;;;;;5063837;28;20024;-73
2023/11/09 02:15:55;;;;;;;0.70;0.60;;;;;;;;;;5056908;28;20021;-74
2023/11/09 02:18:21;;;;;;;1.30;0.70;;;;;;;;;;5054069;28;20074;-74
2023/11/09 02:20:48;;;;;;;1.20;0.77;;;;;;;;;;5055177;28;20447;-73
2023/11/09 02:23:13;;;;;;;1.98;0.80;;;;;;;;;;5060949;28;20020;-74
2023/11/09 02:25:40;;;;;;;1.10;0.63;;;;;;;;;;5058796;28;20024;-73
2023/11/09 02:28:07;;;;;;;1.00;0.70;;;;;;;;;;5064068;28;20044;-73
2023/11/09 02:30:32;;;;;;;1.30;0.80;;;;;;;;;;5056724;28;20016;-74
2023/11/09 02:32:58;;;;;;;1.20;0.75;;;;;;;;;;5043693;28;20112;-75
2023/11/09 02:35:23;;;;;;;1.27;0.68;;;;;;;;;;5048358;28;20024;-73
2023/11/09 02:37:49;;;;;;;0.95;0.57;;;;;;;;;;5062103;28;20021;-74
2023/11/09 02:40:14;;;;;;;1.00;0.80;;;;;;;;;;5051806;28;20487;-74
2023/11/09 02:42:39;;;;;;;0.90;0.60;;;;;;;;;;5048363;28;20363;-74
2023/11/09 02:45:05;;;;;;;1.30;0.65;;;;;;;;;;5056346;28;20037;-74
2023/11/09 02:47:30;;;;;;;1.02;0.60;;;;;;;;;;5046097;28;20045;-74
2023/11/09 02:49:55;;;;;;;1.10;0.60;;;;;;;;;;5060191;28;20520;-74
2023/11/09 02:52:21;;;;;;;0.70;0.57;;;;;;;;;;5045034;28;20282;-74
2023/11/09 02:54:46;;;;;;;1.27;0.70;;;;;;;;;;5051091;28;20272;-74
2023/11/09 02:57:11;;;;;;;0.85;0.65;;;;;;;;;;5049067;28;20094;-74
2023/11/09 02:59:38;;;;;;;0.93;0.70;;;;;;;;;;5050628;28;20059;-74
2023/11/09 03:02:06;;;;;;;0.80;0.52;;;;;;;;;;5049778;28;20029;-74
2023/11/09 03:04:32;;;;;;;0.90;0.63;;;;;;;;;;5056382;28;20061;-74
2023/11/09 03:06:58;;;;;;;0.95;0.60;;;;;;;;;;5051274;28;20033;-74
2023/11/09 03:09:23;;;;;;;1.20;0.80;;;;;;;;;;5059369;28;20052;-74
2023/11/09 03:11:48;;;;;;;0.90;0.68;;;;;;;;;;5043503;28;20045;-73
2023/11/09 03:14:14;;;;;;;1.30;0.80;;;;;;;;;;5052756;28;20032;-74
2023/11/09 03:16:39;;;;;;;1.35;0.60;;;;;;;;;;5059207;28;20085;-74
2023/11/09 03:19:06;;;;;;;1.42;0.80;;;;;;;;;;5050341;28;20064;-74
2023/11/09 03:21:32;;;;;;;0.70;0.60;;;;;;;;;;5059149;28;20181;-74
2023/11/09 03:23:57;;;;;;;0.95;0.70;;;;;;;;;;5039348;28;20056;-74
2023/11/09 03:26:22;;;;;;;1.00;0.70;;;;;;;;;;5056411;28;20036;-74
2023/11/09 03:28:48;;;;;;;0.90;0.60;;;;;;;;;;5057525;28;20131;-74
2023/11/09 03:31:13;;;;;;;0.82;0.60;;;;;;;;;;5052930;28;20828;-74
2023/11/09 03:33:39;;;;;;;0.82;0.65;;;;;;;;;;5044881;28;20048;-74
2023/11/09 03:36:04;;;;;;;0.98;0.60;;;;;;;;;;5054715;28;20546;-74
2023/11/09 03:38:30;;;;;;;1.20;0.68;;;;;;;;;;5057000;28;20149;-74
2023/11/09 03:40:55;;;;;;;1.10;0.75;;;;;;;;;;5055124;28;20124;-74
2023/11/09 03:43:21;;;;;;;1.08;0.70;;;;;;;;;;5047922;28;20044;-74
2023/11/09 03:45:46;;;;;;;1.50;0.60;;;;;;;;;;5059620;28;20060;-74
2023/11/09 03:48:11;;;;;;;1.13;0.60;;;;;;;;;;5061353;28;20102;-74
2023/11/09 03:50:37;;;;;;;1.42;0.70;;;;;;;;;;5067756;28;20036;-74
2023/11/09 03:53:02;;;;;;;1.10;0.80;;;;;;;;;;5067439;28;20478;-74
2023/11/09 03:55:27;;;;;;;1.45;0.77;;;;;;;;;;5056066;28;20036;-73
2023/11/09 03:57:52;;;;;;;0.90;0.60;;;;;;;;;;5063222;28;20033;-74
2023/11/09 04:00:18;;;;;;;1.23;0.50;;;;;;;;;;5055422;28;20262;-74
2023/11/09 04:02:44;;;;;;;0.85;0.50;;;;;;;;;;5063672;28;20278;-74
2023/11/09 04:05:09;;;;;;;1.15;0.77;;;;;;;;;;5054413;28;20044;-74
2023/11/09 04:07:35;;;;;;;0.90;0.63;;;;;;;;;;5065211;28;20045;-74
2023/11/09 04:10:01;;;;;;;0.73;0.43;;;;;;;;;;5052219;28;20033;-74
2023/11/09 04:12:26;;;;;;;1.08;0.70;;;;;;;;;;5056211;28;20095;-74
2023/11/09 04:14:52;;;;;;;0.90;0.60;;;;;;;;;;5058081;28;20029;-74
2023/11/09 04:17:18;;;;;;;0.63;0.52;;;;;;;;;;5064979;28;20499;-74
2023/11/09 04:19:44;;;;;;;0.95;0.57;;;;;;;;;;5057942;28;20048;-74
2023/11/09 04:22:10;;;;;;;1.10;0.50;;;;;;;;;;5053551;28;20129;-74
2023/11/09 04:24:35;;;;;;;0.70;0.40;;;;;;;;;;5057279;28;20084;-74
2023/11/09 04:27:01;;;;;;;1.33;0.60;;;;;;;;;;5063847;28;20397;-74
2023/11/09 04:29:26;;;;;;;0.75;0.65;;;;;;;;;;5050247;28;20290;-74
2023/11/09 04:31:53;;;;;;;1.10;0.68;;;;;;;;;;5063206;28;20132;-74
2023/11/09 04:34:19;;;;;;;0.77;0.57;;;;;;;;;;5051906;28;20028;-74
2023/11/09 04:36:44;;;;;;;1.17;0.70;;;;;;;;;;5053420;28;20048;-74
2023/11/09 04:39:10;;;;;;;0.90;0.60;;;;;;;;;;5062210;28;20055;-74
2023/11/09 04:41:36;;;;;;;1.00;0.70;;;;;;;;;;5064404;28;20515;-74
2023/11/09 04:44:01;;;;;;;1.02;0.57;;;;;;;;;;5052385;28;20032;-74
2023/11/09 04:46:28;;;;;;;0.47;0.40;;;;;;;;;;5064969;28;20047;-74
2023/11/09 04:48:55;;;;;;;1.23;0.68;;;;;;;;;;5054238;28;20051;-74
2023/11/09 04:51:22;;;;;;;0.90;0.60;;;;;;;;;;5047084;28;20144;-74
2023/11/09 04:53:51;;;;;;;1.00;0.63;;;;;;;;;;5062055;28;20037;-73
2023/11/09 04:56:32;;;;;;;0.85;0.70;;;;;;;;;;5059179;28;20181;-73
2023/11/09 05:06:48;;;;;;;0.77;0.55;;;;;;;;;;5055213;28;20052;-73
2023/11/09 05:07:16;;;;;;;1.13;0.75;;;;;;;;;;5072404;28;20415;-74
2023/11/09 05:09:46;;;;;;;0.85;0.60;;;;;;;;;;5075145;28;20055;-73
2023/11/09 05:12:12;;;;;;;0.88;0.60;;;;;;;;;;5067066;28;20091;-72
2023/11/09 05:14:37;;;;;;;1.00;0.50;;;;;;;;;;5057108;28;20484;-73
2023/11/09 05:17:02;;;;;;;1.45;0.80;;;;;;;;;;5055730;28;20024;-73
2023/11/09 05:19:28;;;;;;;0.80;0.68;;;;;;;;;;5063474;28;20035;-73
2023/11/09 05:21:53;;;;;;;0.77;0.50;;;;;;;;;;5051137;28;20469;-73
2023/11/09 05:24:18;;;;;;;0.85;0.70;;;;;;;;;;5058499;28;20282;-72
2023/11/09 05:26:50;;;;;;;0.87;0.63;;;;;;;;;;5039521;28;20473;-74
2023/11/09 05:29:15;;;;;;;1.13;0.60;;;;;;;;;;5051574;28;20306;-73
2023/11/09 05:31:42;;;;;;;0.90;0.70;;;;;;;;;;5064962;28;20411;-74
2023/11/09 05:34:07;;;;;;;0.70;0.60;;;;;;;;;;5048852;28;20017;-73
2023/11/09 05:36:34;;;;;;;0.65;0.52;;;;;;;;;;5054607;28;20032;-73
2023/11/09 05:41:43;;;;;;;0.98;0.70;;;;;;;;;;5045087;28;20047;-74
2023/11/09 05:44:09;;;;;;;0.93;0.60;;;;;;;;;;5051298;28;20032;-72
2023/11/09 05:46:34;;;;;;;1.20;0.70;;;;;;;;;;5059335;28;20041;-72
2023/11/09 05:49:00;;;;;;;1.15;0.80;;;;;;;;;;5046778;28;20059;-73
2023/11/09 05:51:25;;;;;;;0.90;0.60;;;;;;;;;;5062172;28;20056;-72
2023/11/09 05:53:53;;;;;;;1.10;0.70;;;;;;;;;;5057929;28;20691;-76
2023/11/09 05:56:19;;;;;;;1.00;0.80;;;;;;;;;;5050101;28;20115;-73
2023/11/09 05:58:44;;;;;;;0.93;0.60;;;;;;;;;;5049102;28;20147;-74
2023/11/09 06:01:11;;;;;;;1.30;0.80;;;;;;;;;;5047862;28;20047;-74
2023/11/09 06:03:36;;;;;;;0.95;0.65;;;;;;;;;;5046409;28;20044;-73
2023/11/09 06:06:01;;;;;;;1.25;0.80;;;;;;;;;;5052561;28;20405;-73
2023/11/09 06:08:27;;;;;;;1.70;0.80;;;;;;;;;;5048380;28;20080;-73
2023/11/09 06:10:53;;;;;;;2.08;0.77;;;;;;;;;;5052525;28;20576;-74
2023/11/09 06:13:18;;;;;;;0.77;0.57;;;;;;;;;;5052901;28;20070;-72
2023/11/09 06:15:43;;;;;;;0.88;0.50;;;;;;;;;;5051915;28;20051;-74
2023/11/09 06:18:09;;;;;;;0.95;0.60;;;;;;;;;;5050208;28;20028;-74
2023/11/09 06:20:36;;;;;;;1.58;0.55;;;;;;;;;;5050618;28;20037;-72
2023/11/09 06:23:02;;;;;;;1.00;0.80;;;;;;;;;;5050757;28;20044;-71
2023/11/09 06:25:27;;;;;;;1.10;0.70;;;;;;;;;;5054133;28;20048;-69
2023/11/09 06:27:52;;;;;;;1.20;0.50;;;;;;;;;;5052579;28;20036;-70
2023/11/09 06:30:18;;;;;;;0.90;0.63;;;;;;;;;;5049865;28;20182;-70
2023/11/09 06:32:43;;;;;;;1.25;0.60;;;;;;;;;;5055827;28;20306;-72
2023/11/09 06:35:13;;;;;;;1.00;0.70;;;;;;;;;;5051831;28;20063;-72
2023/11/09 06:37:39;;;;;;;0.75;0.57;;;;;;;;;;5050520;28;20143;-72
2023/11/09 06:40:10;;;;;;;1.35;0.70;;;;;;;;;;5054467;28;20713;-73
2023/11/09 06:42:39;;;;;;;2.08;0.85;;;;;;;;;;5054143;28;20044;-71
2023/11/09 06:45:05;;;;;;;1.38;0.75;;;;;;;;;;5053338;28;20032;-72
2023/11/09 06:47:30;;;;;;;1.52;0.80;;;;;;;;;;5051310;28;20056;-77
2023/11/09 06:49:55;;;;;;;1.83;0.73;;;;;;;;;;5038979;28;20059;-78
2023/11/09 06:52:21;;;;;;;1.45;0.77;;;;;;;;;;5053227;28;20455;-73
2023/11/09 06:54:47;;;;;;;1.30;0.73;;;;;;;;;;5052365;28;20086;-74
2023/11/09 06:57:12;;;;;;;1.23;0.70;;;;;;;;;;5051410;28;20420;-75
2023/11/09 06:59:38;;;;;;;1.00;0.60;;;;;;;;;;5050031;28;20115;-76
2023/11/09 07:02:04;;;;;;;1.42;0.60;;;;;;;;;;5058930;28;20556;-78
2023/11/09 07:04:30;;;;;;;0.88;0.60;;;;;;;;;;5049724;28;20069;-77
2023/11/09 07:06:55;;;;;;;1.60;0.60;;;;;;;;;;5052065;28;20052;-78
2023/11/09 07:09:20;;;;;;;1.35;0.60;;;;;;;;;;5053560;28;20751;-74
2023/11/09 07:11:48;;;;;;;2.47;0.80;;;;;;;;;;5055904;28;20053;-73
2023/11/09 07:14:15;;;;;;;1.52;0.80;;;;;;;;;;5057851;28;20217;-74
2023/11/09 07:16:40;;;;;;;1.23;0.68;;;;;;;;;;5054712;28;20104;-74
2023/11/09 07:19:06;;;;;;;1.25;0.63;;;;;;;;;;5057209;28;20041;-73
2023/11/09 07:21:32;;;;;;;2.60;0.80;;;;;;;;;;5051947;28;20763;-76
2023/11/09 07:24:04;;;;;;;4.88;0.88;;;;;;;;;;5052999;28;20060;-73
2023/11/09 07:26:30;;;;;;;3.30;0.90;;;;;;;;;;5052424;28;20496;-74
2023/11/09 07:28:55;;;;;;;4.03;0.60;;;;;;;;;;5054047;28;20036;-73
2023/11/09 07:31:21;;;;;;;1.98;1.00;;;;;;;;;;5056144;28;20040;-73
2023/11/09 07:33:46;;;;;;;2.08;0.80;;;;;;;;;;5055379;28;20032;-74
2023/11/09 07:36:12;;;;;;;2.88;0.82;;;;;;;;;;5055485;28;20115;-73
2023/11/09 07:38:37;;;;;;;2.70;0.85;;;;;;;;;;5057471;28;20127;-75
2023/11/09 07:41:03;;;;;;;2.95;1.10;;;;;;;;;;5056091;28;20021;-73
2023/11/09 07:43:30;;;;;;;2.38;0.90;;;;;;;;;;5055969;28;20067;-74
2023/11/09 07:45:56;;;;;;;17.75;2.08;;;;;;;;;;5057574;28;20033;-73
2023/11/09 07:48:23;;;;;;;4.70;1.08;;;;;;;;;;5054807;28;20083;-74
2023/11/09 07:50:50;;;;;;;3.47;1.13;;;;;;;;;;5053103;28;20024;-72
2023/11/09 07:53:15;;;;;;;3.20;1.10;;;;;;;;;;5057192;28;20074;-74
2023/11/09 07:55:41;;;;;;;4.13;1.08;;;;;;;;;;5054363;28;20056;-73
2023/11/09 07:58:08;;;;;;;4.38;1.13;;;;;;;;;;5055462;28;20090;-72
2023/11/09 08:00:34;;;;;;;4.50;1.13;;;;;;;;;;5055714;28;20044;-73
2023/11/09 08:02:59;;;;;;;2.95;1.02;;;;;;;;;;5057634;28;20542;-74
2023/11/09 08:05:24;;;;;;;2.22;1.02;;;;;;;;;;5054453;28;20423;-73
2023/11/09 08:07:51;;;;;;;2.83;1.08;;;;;;;;;;5055863;28;20526;-74
2023/11/09 08:10:18;;;;;;;3.35;0.98;;;;;;;;;;5055390;28;20029;-73
2023/11/09 08:12:43;;;;;;;1.88;0.70;;;;;;;;;;5054447;28;20105;-73
2023/11/09 08:15:13;;;;;;;3.65;1.17;;;;;;;;;;5052673;28;20029;-74
2023/11/09 08:17:42;;;;;;;3.22;1.10;;;;;;;;;;5058907;28;20051;-74
2023/11/09 08:20:07;;;;;;;2.80;1.20;;;;;;;;;;5053064;28;20449;-74
2023/11/09 08:22:33;;;;;;;2.25;1.00;;;;;;;;;;5054911;28;20036;-74
2023/11/09 08:24:59;;;;;;;1.88;1.08;;;;;;;;;;5052657;28;20104;-75
2023/11/09 08:27:25;;;;;;;2.72;0.90;;;;;;;;;;5052309;28;20036;-74
2023/11/09 08:29:51;;;;;;;2.67;1.33;;;;;;;;;;5050935;28;20057;-73
2023/11/09 08:32:16;;;;;;;2.75;1.30;;;;;;;;;;5054290;28;20059;-73
2023/11/09 08:34:42;;;;;;;2.20;1.10;;;;;;;;;;5055842;28;20097;-74
2023/11/09 08:37:10;;;;;;;2.42;0.90;;;;;;;;;;5055829;28;20293;-74
2023/11/09 08:39:37;;;;;;;2.55;1.05;;;;;;;;;;5054955;28;20041;-74
2023/11/09 08:42:03;;;;;;;2.67;0.82;;;;;;;;;;5059094;28;20111;-74
2023/11/09 08:44:28;;;;;;;2.90;0.90;;;;;;;;;;5051461;28;20050;-75
2023/11/09 08:46:54;;;;;;;2.17;1.02;;;;;;;;;;5055540;28;20120;-75
2023/11/09 08:49:21;;;;;;;2.13;1.10;;;;;;;;;;5054554;28;20048;-75
2023/11/09 08:51:48;;;;;;;2.13;1.10;;;;;;;;;;5054213;28;20036;-75
2023/11/09 08:54:16;;;;;;;3.58;1.00;;;;;;;;;;5053276;28;20072;-74
2023/11/09 08:56:42;;;;;;;2.92;0.88;;;;;;;;;;5052725;28;20037;-73
2023/11/09 08:59:07;;;;;;;1.90;0.90;;;;;;;;;;5053465;28;20109;-74
2023/11/09 09:01:32;;;;;;;3.22;1.10;;;;;;;;;;5051922;28;20037;-74
2023/11/09 09:03:59;;;;;;;1.98;0.93;;;;;;;;;;5058206;28;20037;-74
2023/11/09 09:06:25;;;;;;;2.05;1.10;;;;;;;;;;5054867;28;20036;-73
2023/11/09 09:08:51;;;;;;;2.00;1.20;;;;;;;;;;5059190;28;20512;-74
2023/11/09 09:11:17;;;;;;;3.00;1.17;;;;;;;;;;5062345;28;20031;-73
2023/11/09 09:13:42;;;;;;;2.47;1.10;;;;;;;;;;5047837;28;20914;-74
2023/11/09 09:16:08;;;;;;;2.42;0.95;;;;;;;;;;5055478;28;20029;-74
2023/11/09 09:18:33;;;;;;;2.53;1.30;;;;;;;;;;5053627;28;20125;-73
2023/11/09 09:20:59;;;;;;;2.35;1.20;;;;;;;;;;5052752;28;20044;-75
2023/11/09 09:23:25;;;;;;;2.78;1.10;;;;;;;;;;5055567;28;20435;-76
2023/11/09 09:25:51;;;;;;;1.50;1.02;;;;;;;;;;5055673;28;20025;-76
2023/11/09 09:28:16;;;;;;;2.42;1.10;;;;;;;;;;5066149;28;20052;-74
2023/11/09 09:30:41;;;;;;;3.07;1.37;;;;;;;;;;5056832;28;20545;-74
2023/11/09 09:33:10;;;;;;;1.92;1.00;;;;;;;;;;5063502;28;20282;-75
2023/11/09 09:35:35;;;;;;;2.15;1.08;;;;;;;;;;5050673;28;20045;-73
2023/11/09 09:38:02;;;;;;;2.85;1.17;;;;;;;;;;5054901;28;20537;-75
2023/11/09 09:40:29;;;;;;;3.83;1.30;;;;;;;;;;5050702;28;20021;-74
2023/11/09 09:42:56;;;;;;;3.13;1.05;;;;;;;;;;5061181;28;20028;-74
2023/11/09 09:45:30;;;;;;;2.63;1.25;;;;;;;;;;5057804;28;20039;-74
2023/11/09 09:47:56;;;;;;;1.48;0.90;;;;;;;;;;5047216;28;20037;-73
2023/11/09 09:50:23;;;;;;;4.15;1.40;;;;;;;;;;5057129;28;20012;-76
2023/11/09 09:52:50;;;;;;;1.70;1.08;;;;;;;;;;5055060;28;20017;-74
2023/11/09 09:55:15;;;;;;;2.10;1.17;;;;;;;;;;5060395;28;20280;-74
2023/11/09 09:57:42;;;;;;;1.92;0.98;;;;;;;;;;5055964;28;20534;-74
2023/11/09 10:00:12;;;;;;;1.85;1.08;;;;;;;;;;5056387;28;20059;-75
2023/11/09 10:02:39;;;;;;;2.28;1.23;;;;;;;;;;5062871;28;20071;-74
2023/11/09 10:05:07;;;;;;;2.47;1.13;;;;;;;;;;5054507;28;20415;-75
2023/11/09 10:07:34;;;;;;;2.05;1.08;;;;;;;;;;5055214;28;20516;-74
2023/11/09 10:10:01;;;;;;;2.47;1.27;;;;;;;;;;5052673;28;20124;-74
2023/11/09 10:12:26;;;;;;;2.63;1.30;;;;;;;;;;5050958;28;20041;-74
2023/11/09 10:14:52;;;;;;;2.50;1.08;;;;;;;;;;5048978;28;20029;-74
2023/11/09 10:17:18;;;;;;;3.95;1.35;;;;;;;;;;5050133;28;20079;-74
2023/11/09 10:19:43;;;;;;;3.08;1.25;;;;;;;;;;5051131;28;20081;-78
2023/11/09 10:22:09;;;;;;;1.80;1.20;;;;;;;;;;5050515;28;20466;-79
2023/11/09 10:24:37;;;;;;;2.78;1.00;;;;;;;;;;5052543;28;20140;-78
2023/11/09 10:27:06;;;;;;;2.80;1.23;;;;;;;;;;5056222;28;20523;-77
2023/11/09 10:29:31;;;;;;;2.20;1.20;;;;;;;;;;5053637;28;20049;-75
2023/11/09 10:32:00;;;;;;;1.98;1.23;;;;;;;;;;5040689;28;20106;-74
2023/11/09 10:34:25;;;;;;;3.38;1.10;;;;;;;;;;5053646;28;20127;-72
2023/11/09 10:36:56;;;;;;;1.95;1.05;;;;;;;;;;5053242;28;20495;-74
2023/11/09 10:39:22;;;;;;;2.67;1.25;;;;;;;;;;5057316;28;20063;-73
2023/11/09 10:41:49;;;;;;;2.78;1.10;;;;;;;;;;5057688;28;20231;-74
2023/11/09 10:44:18;;;;;;;2.75;1.30;;;;;;;;;;5053907;28;20078;-75
2023/11/09 10:46:44;;;;;;;2.00;1.20;;;;;;;;;;5053222;28;20696;-74
2023/11/09 10:49:11;;;;;;;1.90;1.10;;;;;;;;;;5053312;28;20052;-76
2023/11/09 10:51:37;;;;;;;1.90;1.13;;;;;;;;;;5052849;28;20124;-76
2023/11/09 10:54:03;;;;;;;3.00;1.20;;;;;;;;;;5053046;28;20033;-76
2023/11/09 10:56:30;;;;;;;1.98;1.08;;;;;;;;;;5053512;28;20033;-77
2023/11/09 10:58:56;;;;;;;2.67;1.20;;;;;;;;;;5057543;28;20114;-75
2023/11/09 11:01:23;;;;;;;1.98;1.20;;;;;;;;;;5052149;28;20086;-73
2023/11/09 11:03:52;;;;;;;2.28;1.10;;;;;;;;;;5051534;28;20032;-76
2023/11/09 11:06:20;;;;;;;3.70;1.00;;;;;;;;;;5054856;28;20028;-75
2023/11/09 11:08:49;;;;;;;2.65;1.20;;;;;;;;;;5053882;28;20041;-76
2023/11/09 11:11:24;;;;;;;2.17;1.00;;;;;;;;;;5052318;28;20144;-78
2023/11/09 11:13:54;;;;;;;2.42;1.05;;;;;;;;;;5043136;28;20048;-76
2023/11/09 11:16:22;;;;;;;2.08;1.00;;;;;;;;;;5054156;28;20040;-79
2023/11/09 11:19:00;;;;;;;3.25;1.15;;;;;;;;;;5052905;28;20037;-78
2023/11/09 11:21:27;;;;;;;1.90;1.10;;;;;;;;;;5051877;28;20052;-80
2023/11/09 11:24:11;;;;;;;2.38;1.00;;;;;;;;;;5054196;28;20118;-77
2023/11/09 11:27:09;;;;;;;3.03;1.20;;;;;;;;;;5051885;28;20132;-75
2023/11/09 11:29:35;;;;;;;2.63;1.08;;;;;;;;;;5010632;28;20052;-74
2023/11/09 11:32:03;;;;;;;2.40;1.23;;;;;;;;;;5051461;28;20424;-74
2023/11/09 11:35:00;;;;;;;2.78;1.20;;;;;;;;;;5051969;28;20033;-74
2023/11/09 11:37:30;;;;;;;1.60;0.95;;;;;;;;;;5028595;28;20231;-74
2023/11/09 11:39:56;;;;;;;2.47;1.45;;;;;;;;;;5051281;28;20076;-73
2023/11/09 11:42:22;;;;;;;2.65;1.60;;;;;;;;;;5051705;28;20060;-74
2023/11/09 11:44:52;;;;;;;2.25;1.10;;;;;;;;;;5051896;28;20072;-73
2023/11/09 11:47:17;;;;;;;;;;;;;;;;;;5050389;28;20459;-73
2023/11/09 11:49:45;;;;;;;1.88;1.10;;;;;;;;;;5050937;28;20014;-73
2023/11/09 11:52:10;;;;;;;2.97;0.93;;;;;;;;;;5051276;28;20407;-76
2023/11/09 11:54:36;;;;;;;1.88;1.10;;;;;;;;;;5050445;28;20041;-74
2023/11/09 11:57:01;;;;;;;2.25;1.10;;;;;;;;;;5054273;28;20033;-74
2023/11/09 11:59:28;;;;;;;2.83;1.10;;;;;;;;;;5056247;28;20053;-73
2023/11/09 12:01:55;;;;;;;2.38;1.15;;;;;;;;;;5053837;28;20446;-74
2023/11/09 12:04:20;;;;;;;2.92;1.23;;;;;;;;;;5056419;28;20032;-75
2023/11/09 12:06:47;;;;;;;2.08;1.00;;;;;;;;;;5048854;28;20479;-76
2023/11/09 12:09:15;;;;;;;2.35;1.20;;;;;;;;;;5054537;28;20181;-76
2023/11/09 12:11:44;;;;;;;2.47;1.20;;;;;;;;;;5053822;28;20035;-76
2023/11/09 12:14:11;;;;;;;3.08;1.20;;;;;;;;;;5060746;28;20516;-75
2023/11/09 12:16:39;;;;;;;3.00;1.00;;;;;;;;;;5053664;28;20127;-75
2023/11/09 12:19:11;;;;;;;2.72;1.00;;;;;;;;;;5043829;28;20033;-75
2023/11/09 12:21:36;;;;;;;2.53;1.10;;;;;;;;;;5051415;28;20739;-74
2023/11/09 12:26:45;;;;;;;1.85;1.05;;;;;;;;;;5048848;28;20071;-74
2023/11/09 12:29:11;;;;;;;2.25;1.00;;;;;;;;;;5057579;28;20136;-75
2023/11/09 12:31:36;;;;;;;1.83;1.10;;;;;;;;;;5052888;28;20079;-74
2023/11/09 12:34:03;;;;;;;1.77;0.90;;;;;;;;;;5049960;28;20045;-75
2023/11/09 12:36:28;;;;;;;1.85;1.30;;;;;;;;;;5051581;28;20861;-74
2023/11/09 12:38:54;;;;;;;2.50;1.05;;;;;;;;;;5052954;28;20152;-75
2023/11/09 12:41:26;;;;;;;2.15;0.90;;;;;;;;;;5053490;28;20120;-75
2023/11/09 12:43:51;;;;;;;1.95;1.20;;;;;;;;;;5061058;28;20067;-75
2023/11/09 12:46:19;;;;;;;2.17;0.90;;;;;;;;;;5057218;28;20487;-75
2023/11/09 12:48:47;;;;;;;2.63;1.00;;;;;;;;;;5060079;28;20407;-75
2023/11/09 12:51:15;;;;;;;2.20;1.00;;;;;;;;;;5052132;28;20488;-75
2023/11/09 12:53:43;;;;;;;2.08;1.00;;;;;;;;;;5056275;28;20496;-75
2023/11/09 12:56:08;;;;;;;2.85;1.08;;;;;;;;;;5043747;28;20409;-76
2023/11/09 12:58:36;;;;;;;1.75;0.95;;;;;;;;;;5046651;28;20040;-75
2023/11/09 13:01:04;;;;;;;1.67;1.02;;;;;;;;;;5055958;28;20103;-75
2023/11/09 13:03:31;;;;;;;2.13;1.00;;;;;;;;;;5043612;28;20025;-75
2023/11/09 13:05:56;;;;;;;2.25;1.02;;;;;;;;;;5056304;28;20025;-76
2023/11/09 13:08:22;;;;;;;1.98;1.00;;;;;;;;;;5054386;28;20031;-75
2023/11/09 13:10:57;;;;;;;1.70;0.90;;;;;;;;;;5059793;28;20587;-74
2023/11/09 13:13:24;;;;;;;2.00;0.93;;;;;;;;;;5063679;28;20840;-81
2023/11/09 13:15:50;;;;;;;2.30;1.45;;;;;;;;;;5062014;28;20021;-75
2023/11/09 13:18:26;;;;;;;1.83;0.90;;;;;;;;;;5059934;28;20684;-74
2023/11/09 13:20:53;;;;;;;3.00;0.90;;;;;;;;;;5053271;28;20036;-75
2023/11/09 13:23:26;;;;;;;2.20;1.17;;;;;;;;;;5056494;28;20029;-75
2023/11/09 13:25:56;;;;;;;2.10;1.27;;;;;;;;;;5052857;28;20036;-74
2023/11/09 13:28:23;;;;;;;2.75;0.90;;;;;;;;;;5056137;28;20055;-75
2023/11/09 13:30:52;;;;;;;2.05;0.88;;;;;;;;;;5054861;28;20063;-74
2023/11/09 13:33:29;;;;;;;1.63;1.10;;;;;;;;;;5056473;28;20047;-74
2023/11/09 13:35:58;;;;;;;1.90;1.20;;;;;;;;;;5057247;28;20506;-74
2023/11/09 13:38:30;;;;;;;2.43;1.60;;;;;;;;;;5053347;28;20033;-73
2023/11/09 13:41:12;;;;;;;2.33;0.90;;;;;;;;;;5058989;28;20260;-73
2023/11/09 13:43:37;;;;;;;1.85;1.30;;;;;;;;;;5057059;28;20541;-74
2023/11/09 13:46:13;;;;;;;3.07;1.00;;;;;;;;;;5056974;28;20033;-75
2023/11/09 13:48:43;;;;;;;1.80;0.90;;;;;;;;;;5059994;28;20663;-74
2023/11/09 13:51:14;;;;;;;2.15;0.95;;;;;;;;;;5057311;28;20033;-75
2023/11/09 13:58:47;;;;;;;1.70;1.00;;;;;;;;;;5057260;28;20040;-76
2023/11/09 14:01:24;;;;;;;1.50;0.95;;;;;;;;;;5057781;28;20037;-76
2023/11/09 14:03:50;;;;;;;2.05;1.00;;;;;;;;;;5058585;28;20064;-75
2023/11/09 14:06:15;;;;;;;1.67;0.93;;;;;;;;;;5059235;28;20607;-75
2023/11/09 14:08:43;;;;;;;2.23;1.00;;;;;;;;;;5059942;28;20040;-76
2023/11/09 14:11:10;;;;;;;2.47;1.20;;;;;;;;;;5058435;28;20666;-76
2023/11/09 14:13:49;;;;;;;1.42;0.85;;;;;;;;;;5062048;28;20027;-76
2023/11/09 14:16:23;;;;;;;1.85;0.75;;;;;;;;;;5056878;28;20122;-76
2023/11/09 14:18:59;;;;;;;1.63;0.95;;;;;;;;;;5058139;28;20446;-75
2023/11/09 14:21:24;;;;;;;1.63;1.00;;;;;;;;;;5057782;28;20056;-74
2023/11/09 14:23:54;;;;;;;1.58;0.85;;;;;;;;;;5058461;28;20075;-74
2023/11/09 14:26:26;;;;;;;1.70;0.90;;;;;;;;;;5057938;28;20111;-74
2023/11/09 14:28:59;;;;;;;4.22;1.05;;;;;;;;;;5056793;28;20098;-74
2023/11/09 14:31:24;;;;;;;1.48;0.88;;;;;;;;;;5055714;28;20094;-75
2023/11/09 14:33:50;;;;;;;1.45;0.80;;;;;;;;;;5053191;28;20056;-74
2023/11/09 14:36:16;;;;;;;1.55;1.00;;;;;;;;;;5059351;28;20052;-74
2023/11/09 14:38:47;;;;;;;2.08;1.05;;;;;;;;;;5060588;28;20384;-74
2023/11/09 14:41:16;;;;;;;1.92;1.20;;;;;;;;;;5065054;28;20043;-72
2023/11/09 14:43:41;;;;;;;1.52;0.80;;;;;;;;;;5056293;28;20056;-73
2023/11/09 14:46:13;;;;;;;2.27;1.13;;;;;;;;;;5056648;28;20136;-75
2023/11/09 14:48:39;;;;;;;2.25;1.10;;;;;;;;;;5062452;28;20306;-73
2023/11/09 14:51:04;;;;;;;1.98;1.13;;;;;;;;;;5057784;28;20032;-74
2023/11/09 14:53:30;;;;;;;1.80;1.08;;;;;;;;;;5053135;28;20127;-75
2023/11/09 14:55:58;;;;;;;1.70;1.20;;;;;;;;;;5056035;28;20119;-75
2023/11/09 14:58:30;;;;;;;2.25;1.00;;;;;;;;;;5051783;28;20081;-73